Time;durP1;ratioP1;P1;durP2;ratioP2;P2;SDS_P1;SDS_P2;PMS_P1;PMS_P2;Temp;Humidity;BMP_temperature;BMP_pressure;BME280_temperature;BME280_humidity;BME280_pressure;Samples;Min_cycle;Max_cycle;Signal;HPM_P1;HPM_P2
2021/11/07 00:01:03;;;;;;;9.50;8.50;;;;;;;;;;5083081;28;20214;-92
2021/11/07 00:03:54;;;;;;;12.43;9.17;;;;;;;;;;5082984;28;20201;-94
2021/11/07 00:06:46;;;;;;;11.40;9.27;;;;;;;;;;5083503;28;20190;-94
2021/11/07 00:09:35;;;;;;;13.70;10.13;;;;;;;;;;5082824;28;20312;-92
2021/11/07 00:12:22;;;;;;;14.07;9.73;;;;;;;;;;5085331;28;20236;-94
2021/11/07 00:15:07;;;;;;;11.50;9.70;;;;;;;;;;5083032;28;20555;-92
2021/11/07 00:17:56;;;;;;;10.73;9.17;;;;;;;;;;5082863;28;20193;-92
2021/11/07 00:20:49;;;;;;;11.43;9.57;;;;;;;;;;5084137;28;20186;-95
2021/11/07 00:23:53;;;;;;;10.97;9.53;;;;;;;;;;5084489;28;20190;-91
2021/11/07 00:26:47;;;;;;;11.63;9.80;;;;;;;;;;5085006;28;20685;-95
2021/11/07 00:29:35;;;;;;;11.63;9.17;;;;;;;;;;5087075;28;20190;-95
2021/11/07 00:32:25;;;;;;;10.73;9.63;;;;;;;;;;5084104;28;20206;-93
2021/11/07 00:47:02;;;;;;;11.07;9.03;;;;;;;;;;5139206;27;20729;-90
2021/11/07 00:49:51;;;;;;;12.13;9.37;;;;;;;;;;5115383;28;20224;-95
2021/11/07 00:52:49;;;;;;;11.37;9.30;;;;;;;;;;5097729;28;20196;-91
2021/11/07 00:55:39;;;;;;;10.83;8.90;;;;;;;;;;5098653;28;20204;-92
2021/11/07 00:58:33;;;;;;;10.87;9.47;;;;;;;;;;5099031;28;20661;-91
2021/11/07 01:01:20;;;;;;;12.80;9.03;;;;;;;;;;5098036;28;20189;-92
2021/11/07 01:04:10;;;;;;;15.07;9.70;;;;;;;;;;5098951;28;20182;-92
2021/11/07 01:06:55;;;;;;;11.00;8.93;;;;;;;;;;5097393;28;20212;-91
2021/11/07 01:09:41;;;;;;;13.23;9.60;;;;;;;;;;5099208;28;20188;-89
2021/11/07 01:12:29;;;;;;;9.63;8.57;;;;;;;;;;5100444;28;20221;-90
2021/11/07 01:15:15;;;;;;;10.77;8.70;;;;;;;;;;5097964;28;20185;-94
2021/11/07 01:18:00;;;;;;;11.30;9.40;;;;;;;;;;5098071;28;20184;-95
2021/11/07 01:20:47;;;;;;;11.97;9.40;;;;;;;;;;5098257;28;20779;-93
2021/11/07 01:23:37;;;;;;;10.80;9.23;;;;;;;;;;5098562;28;20271;-93
2021/11/07 01:26:26;;;;;;;11.07;9.40;;;;;;;;;;5097554;28;20209;-93
2021/11/07 01:29:14;;;;;;;10.47;9.03;;;;;;;;;;5098303;28;20229;-95
2021/11/07 01:32:01;;;;;;;12.03;9.53;;;;;;;;;;5097082;28;20264;-92
2021/11/07 01:34:57;;;;;;;12.13;9.20;;;;;;;;;;5096353;28;20232;-94
2021/11/07 01:37:53;;;;;;;14.47;9.83;;;;;;;;;;5099755;28;20181;-94
2021/11/07 01:40:42;;;;;;;11.67;9.67;;;;;;;;;;5096693;28;20185;-90
2021/11/07 01:43:28;;;;;;;10.67;9.43;;;;;;;;;;5098618;28;20194;-92
2021/11/07 01:46:21;;;;;;;13.00;9.20;;;;;;;;;;5098844;28;20354;-96
2021/11/07 01:49:10;;;;;;;11.30;9.90;;;;;;;;;;5097847;28;20185;-94
2021/11/07 01:52:01;;;;;;;12.57;10.50;;;;;;;;;;5098395;28;20235;-94
2021/11/07 01:54:53;;;;;;;12.13;8.97;;;;;;;;;;5100544;28;20185;-92
2021/11/07 01:57:39;;;;;;;13.13;9.77;;;;;;;;;;5088336;28;20189;-91
2021/11/07 02:00:29;;;;;;;13.43;10.00;;;;;;;;;;5082655;28;20205;-93
2021/11/07 02:03:14;;;;;;;12.70;9.43;;;;;;;;;;5082384;28;20185;-94
2021/11/07 02:05:59;;;;;;;11.47;9.90;;;;;;;;;;5083007;28;20688;-94
2021/11/07 02:08:45;;;;;;;12.70;9.70;;;;;;;;;;5084131;28;20228;-95
2021/11/07 02:11:32;;;;;;;12.60;9.50;;;;;;;;;;5083499;28;20257;-92
2021/11/07 02:14:17;;;;;;;11.93;9.40;;;;;;;;;;5083432;28;20237;-94
2021/11/07 02:17:02;;;;;;;11.33;9.37;;;;;;;;;;5083508;28;20177;-94
2021/11/07 02:19:47;;;;;;;11.60;9.77;;;;;;;;;;5082675;28;20186;-96
2021/11/07 02:22:36;;;;;;;11.33;9.07;;;;;;;;;;5082417;28;20185;-94
2021/11/07 02:25:21;;;;;;;14.33;10.23;;;;;;;;;;5082233;28;20186;-92
2021/11/07 02:28:06;;;;;;;12.07;9.40;;;;;;;;;;5082019;28;20185;-92
2021/11/07 02:30:52;;;;;;;13.83;10.30;;;;;;;;;;5081683;28;20225;-95
2021/11/07 02:33:37;;;;;;;13.57;9.87;;;;;;;;;;5083171;28;20604;-92
2021/11/07 02:36:22;;;;;;;13.90;10.43;;;;;;;;;;5082098;28;20755;-93
2021/11/07 02:39:09;;;;;;;13.13;9.80;;;;;;;;;;5081975;28;20190;-94
2021/11/07 02:41:54;;;;;;;12.23;9.87;;;;;;;;;;5082288;28;20197;-94
2021/11/07 02:44:40;;;;;;;13.47;10.47;;;;;;;;;;5081324;28;20186;-93
2021/11/07 02:47:25;;;;;;;16.67;10.97;;;;;;;;;;5081865;28;20221;-90
2021/11/07 02:50:11;;;;;;;13.63;10.60;;;;;;;;;;5081552;28;20290;-95
2021/11/07 02:52:56;;;;;;;16.40;10.70;;;;;;;;;;5082497;28;20182;-93
2021/11/07 02:55:43;;;;;;;13.57;10.63;;;;;;;;;;5082763;28;20194;-94
2021/11/07 02:58:28;;;;;;;13.33;10.10;;;;;;;;;;5081604;28;20197;-92
2021/11/07 03:01:13;;;;;;;13.90;10.07;;;;;;;;;;5082509;28;20193;-91
2021/11/07 03:04:02;;;;;;;14.17;10.80;;;;;;;;;;5081982;28;20252;-90
2021/11/07 03:06:47;;;;;;;12.97;10.37;;;;;;;;;;5082259;28;20209;-91
2021/11/07 03:09:34;;;;;;;14.57;10.47;;;;;;;;;;5080805;28;20296;-91
2021/11/07 03:12:21;;;;;;;12.73;10.17;;;;;;;;;;5079956;28;20194;-90
2021/11/07 03:15:08;;;;;;;15.87;11.87;;;;;;;;;;5079818;28;20185;-91
2021/11/07 03:17:53;;;;;;;16.67;10.60;;;;;;;;;;5079976;28;20193;-91
2021/11/07 03:20:38;;;;;;;15.30;11.00;;;;;;;;;;5080655;28;20190;-90
2021/11/07 03:23:23;;;;;;;15.57;11.17;;;;;;;;;;5080611;28;20193;-93
2021/11/07 03:26:11;;;;;;;14.27;10.70;;;;;;;;;;5080475;28;20280;-91
2021/11/07 03:29:00;;;;;;;16.37;10.57;;;;;;;;;;5080325;28;20252;-91
2021/11/07 03:31:50;;;;;;;19.13;10.93;;;;;;;;;;5080817;28;20254;-95
2021/11/07 03:34:42;;;;;;;13.27;10.73;;;;;;;;;;5080811;28;20268;-91
2021/11/07 03:37:30;;;;;;;15.80;10.67;;;;;;;;;;5080823;28;20189;-92
2021/11/07 03:40:15;;;;;;;16.17;11.17;;;;;;;;;;5081515;28;20182;-91
2021/11/07 03:43:00;;;;;;;18.33;11.57;;;;;;;;;;5079576;28;20548;-92
2021/11/07 03:45:46;;;;;;;17.00;11.43;;;;;;;;;;5079759;28;20531;-90
2021/11/07 03:48:32;;;;;;;17.47;11.50;;;;;;;;;;5080301;28;20197;-93
2021/11/07 03:51:17;;;;;;;16.73;11.93;;;;;;;;;;5079830;28;20260;-93
2021/11/07 03:54:03;;;;;;;17.53;12.23;;;;;;;;;;5079542;28;20661;-94
2021/11/07 03:56:48;;;;;;;15.73;11.70;;;;;;;;;;5079832;28;20186;-91
2021/11/07 03:59:33;;;;;;;16.43;11.93;;;;;;;;;;5079508;28;20193;-93
2021/11/07 04:02:20;;;;;;;17.83;11.67;;;;;;;;;;5081409;28;20553;-92
2021/11/07 04:05:07;;;;;;;17.17;11.70;;;;;;;;;;5080564;28;20190;-94
2021/11/07 04:07:52;;;;;;;18.50;11.37;;;;;;;;;;5080569;28;20205;-91
2021/11/07 04:10:38;;;;;;;16.67;11.70;;;;;;;;;;5079452;28;20670;-92
2021/11/07 04:13:23;;;;;;;17.23;12.03;;;;;;;;;;5080440;28;20253;-92
2021/11/07 04:16:10;;;;;;;13.73;11.37;;;;;;;;;;5079199;28;20251;-90
2021/11/07 04:18:56;;;;;;;14.73;11.47;;;;;;;;;;5080319;28;20186;-94
2021/11/07 04:21:45;;;;;;;16.77;11.47;;;;;;;;;;5078362;28;20182;-91
2021/11/07 04:24:31;;;;;;;13.70;9.47;;;;;;;;;;5079721;28;20237;-91
2021/11/07 04:27:17;;;;;;;16.00;11.47;;;;;;;;;;5080900;28;20210;-92
2021/11/07 04:30:02;;;;;;;16.10;11.30;;;;;;;;;;5081907;28;20185;-92
2021/11/07 04:32:47;;;;;;;14.47;11.53;;;;;;;;;;5081513;28;20188;-93
2021/11/07 04:35:34;;;;;;;15.53;11.43;;;;;;;;;;5079927;28;20233;-91
2021/11/07 04:38:20;;;;;;;15.43;11.07;;;;;;;;;;5079543;28;20201;-92
2021/11/07 04:41:05;;;;;;;18.17;11.47;;;;;;;;;;5080301;28;20182;-91
2021/11/07 04:43:51;;;;;;;15.40;10.83;;;;;;;;;;5080030;28;20182;-94
2021/11/07 04:46:37;;;;;;;16.67;10.70;;;;;;;;;;5079480;28;20295;-93
2021/11/07 04:49:22;;;;;;;15.27;10.07;;;;;;;;;;5080200;28;20495;-91
2021/11/07 04:52:08;;;;;;;14.83;10.57;;;;;;;;;;5081790;28;20646;-91
2021/11/07 04:54:54;;;;;;;14.83;11.07;;;;;;;;;;5081144;28;20523;-92
2021/11/07 04:57:42;;;;;;;10.60;9.43;;;;;;;;;;5077749;28;20202;-91
2021/11/07 05:00:27;;;;;;;13.23;10.10;;;;;;;;;;5078506;28;20190;-92
2021/11/07 05:03:12;;;;;;;14.13;10.23;;;;;;;;;;5076717;28;20190;-91
2021/11/07 05:05:58;;;;;;;16.27;11.20;;;;;;;;;;5078505;28;20260;-91
2021/11/07 05:08:44;;;;;;;15.17;11.07;;;;;;;;;;5078483;28;20201;-92
2021/11/07 05:11:29;;;;;;;17.33;11.03;;;;;;;;;;5078283;28;20186;-92
2021/11/07 05:14:15;;;;;;;14.43;10.53;;;;;;;;;;5078729;28;20186;-89
2021/11/07 05:17:00;;;;;;;15.07;11.13;;;;;;;;;;5077419;28;20305;-95
2021/11/07 05:19:45;;;;;;;16.77;10.83;;;;;;;;;;5079065;28;20868;-93
2021/11/07 05:22:30;;;;;;;13.67;10.57;;;;;;;;;;5079952;28;20674;-93
2021/11/07 05:25:17;;;;;;;17.40;11.97;;;;;;;;;;5079159;28;20202;-93
2021/11/07 05:28:03;;;;;;;16.03;10.97;;;;;;;;;;5078598;28;20256;-90
2021/11/07 05:30:48;;;;;;;16.10;10.07;;;;;;;;;;5077297;28;20229;-90
2021/11/07 05:33:34;;;;;;;15.00;11.17;;;;;;;;;;5080076;28;20550;-91
2021/11/07 05:36:19;;;;;;;19.17;11.67;;;;;;;;;;5081113;28;20177;-91
2021/11/07 05:39:04;;;;;;;17.87;10.73;;;;;;;;;;5079762;28;20197;-91
2021/11/07 05:41:50;;;;;;;17.10;10.90;;;;;;;;;;5079366;28;20232;-88
2021/11/07 05:44:35;;;;;;;17.50;11.47;;;;;;;;;;5078610;28;20242;-93
2021/11/07 05:47:20;;;;;;;17.27;12.10;;;;;;;;;;5080339;28;20255;-92
2021/11/07 05:50:06;;;;;;;17.50;11.90;;;;;;;;;;5080633;28;20340;-90
2021/11/07 05:52:52;;;;;;;19.97;11.70;;;;;;;;;;5081069;28;20193;-90
2021/11/07 05:55:38;;;;;;;14.67;11.00;;;;;;;;;;5079318;28;20554;-91
2021/11/07 05:58:24;;;;;;;19.47;11.57;;;;;;;;;;5081565;28;20189;-91
2021/11/07 06:01:09;;;;;;;15.37;11.20;;;;;;;;;;5080090;28;20186;-89
2021/11/07 06:03:55;;;;;;;15.10;10.77;;;;;;;;;;5079182;28;20205;-91
2021/11/07 06:06:40;;;;;;;13.40;11.10;;;;;;;;;;5081256;28;20269;-90
2021/11/07 06:09:25;;;;;;;15.00;11.07;;;;;;;;;;5079676;28;20201;-89
2021/11/07 06:12:11;;;;;;;16.47;11.37;;;;;;;;;;5078936;28;20186;-87
2021/11/07 06:14:57;;;;;;;15.17;11.70;;;;;;;;;;5080295;28;20229;-90
2021/11/07 06:17:42;;;;;;;16.20;10.57;;;;;;;;;;5080504;28;20718;-91
2021/11/07 06:20:27;;;;;;;14.40;11.90;;;;;;;;;;5079558;28;20186;-91
2021/11/07 06:23:12;;;;;;;14.27;10.70;;;;;;;;;;5081664;28;20189;-91
2021/11/07 06:25:57;;;;;;;14.87;11.27;;;;;;;;;;5083879;28;20169;-90
2021/11/07 06:28:42;;;;;;;16.97;11.43;;;;;;;;;;5083225;28;20206;-93
2021/11/07 06:31:29;;;;;;;14.53;11.33;;;;;;;;;;5081125;28;20241;-90
2021/11/07 06:34:15;;;;;;;17.67;11.93;;;;;;;;;;5082562;28;20653;-92
2021/11/07 06:37:00;;;;;;;16.07;12.00;;;;;;;;;;5082437;28;20185;-90
2021/11/07 06:39:45;;;;;;;15.90;11.87;;;;;;;;;;5081415;28;20190;-91
2021/11/07 06:42:30;;;;;;;16.03;11.03;;;;;;;;;;5081881;28;20719;-89
2021/11/07 06:45:15;;;;;;;14.13;10.87;;;;;;;;;;5080985;28;20225;-88
2021/11/07 06:48:02;;;;;;;14.03;9.80;;;;;;;;;;5078423;28;20280;-88
2021/11/07 06:50:47;;;;;;;15.43;10.93;;;;;;;;;;5078258;28;20696;-89
2021/11/07 06:53:33;;;;;;;16.80;11.03;;;;;;;;;;5078403;28;20220;-88
2021/11/07 06:56:18;;;;;;;15.20;10.33;;;;;;;;;;5077883;28;20193;-88
2021/11/07 06:59:04;;;;;;;12.00;9.57;;;;;;;;;;5075690;28;20177;-87
2021/11/07 07:01:49;;;;;;;12.57;9.70;;;;;;;;;;5076991;28;20222;-88
2021/11/07 07:04:37;;;;;;;14.10;10.40;;;;;;;;;;5076784;28;20550;-88
2021/11/07 07:07:22;;;;;;;14.63;9.57;;;;;;;;;;5076188;28;20236;-88
2021/11/07 07:10:12;;;;;;;13.03;9.73;;;;;;;;;;5077226;28;20189;-88
2021/11/07 07:13:02;;;;;;;10.87;9.70;;;;;;;;;;5078219;28;20197;-87
2021/11/07 07:15:52;;;;;;;13.30;9.33;;;;;;;;;;5078112;28;20194;-89
2021/11/07 07:18:48;;;;;;;11.63;8.77;;;;;;;;;;5077552;28;20194;-91
2021/11/07 07:21:44;;;;;;;11.70;8.43;;;;;;;;;;5078282;28;20186;-88
2021/11/07 07:25:00;;;;;;;10.97;8.30;;;;;;;;;;5077876;28;20202;-90
2021/11/07 07:28:00;;;;;;;10.60;8.50;;;;;;;;;;5097661;28;20339;-88
2021/11/07 07:31:20;;;;;;;13.33;8.13;;;;;;;;;;5088739;28;20190;-89
2021/11/07 07:34:07;;;;;;;10.67;7.83;;;;;;;;;;5077360;28;20309;-87
2021/11/07 07:36:54;;;;;;;8.27;6.77;;;;;;;;;;5075887;28;20275;-89
2021/11/07 07:39:39;;;;;;;7.97;7.03;;;;;;;;;;5077228;28;20182;-89
2021/11/07 07:42:25;;;;;;;8.63;6.83;;;;;;;;;;5077557;28;20574;-90
2021/11/07 07:45:10;;;;;;;8.57;6.87;;;;;;;;;;5076002;28;20233;-88
2021/11/07 07:47:56;;;;;;;8.13;6.37;;;;;;;;;;5076785;28;20256;-90
2021/11/07 07:50:42;;;;;;;9.03;5.73;;;;;;;;;;5083434;28;20209;-89
2021/11/07 07:53:28;;;;;;;7.30;5.70;;;;;;;;;;5080346;28;20240;-89
2021/11/07 07:56:13;;;;;;;6.97;5.80;;;;;;;;;;5082842;28;20555;-89
2021/11/07 07:58:58;;;;;;;7.83;5.53;;;;;;;;;;5096794;28;20315;-90
2021/11/07 08:01:43;;;;;;;6.17;5.50;;;;;;;;;;5094454;28;20545;-90
2021/11/07 08:04:28;;;;;;;10.97;5.97;;;;;;;;;;5090377;28;20685;-88
2021/11/07 08:07:13;;;;;;;6.60;5.83;;;;;;;;;;5096605;28;20180;-88
2021/11/07 08:10:00;;;;;;;7.57;6.37;;;;;;;;;;5087902;28;20598;-90
2021/11/07 08:12:45;;;;;;;6.63;5.70;;;;;;;;;;5076825;28;20197;-89
2021/11/07 08:15:30;;;;;;;6.73;5.70;;;;;;;;;;5087924;28;20722;-90
2021/11/07 08:18:16;;;;;;;7.27;5.67;;;;;;;;;;5084184;28;20189;-89
2021/11/07 08:21:01;;;;;;;6.60;5.37;;;;;;;;;;5086033;28;20201;-89
2021/11/07 08:23:49;;;;;;;6.43;5.83;;;;;;;;;;5084345;28;20553;-88
2021/11/07 08:26:39;;;;;;;7.83;6.00;;;;;;;;;;5075708;28;20201;-89
2021/11/07 08:29:27;;;;;;;8.70;5.87;;;;;;;;;;5077246;28;20259;-90
2021/11/07 08:32:12;;;;;;;8.23;6.07;;;;;;;;;;5080767;28;20189;-89
2021/11/07 08:34:57;;;;;;;7.73;5.93;;;;;;;;;;5088201;28;20267;-90
2021/11/07 08:37:46;;;;;;;6.60;5.90;;;;;;;;;;5085522;28;20213;-91
2021/11/07 08:40:34;;;;;;;7.00;5.83;;;;;;;;;;5080439;28;20205;-88
2021/11/07 09:01:45;;;;;;;9.87;6.00;;;;;;;;;;5077227;28;20661;-91
2021/11/07 09:04:40;;;;;;;7.30;6.20;;;;;;;;;;5077400;28;20232;-87
2021/11/07 09:07:36;;;;;;;10.40;6.23;;;;;;;;;;5078565;28;20189;-88
2021/11/07 09:10:24;;;;;;;9.17;6.93;;;;;;;;;;5081879;28;20584;-92
2021/11/07 09:13:10;;;;;;;6.70;5.97;;;;;;;;;;5081575;28;20225;-90
2021/11/07 09:15:57;;;;;;;9.83;6.37;;;;;;;;;;5081632;28;20190;-90
2021/11/07 09:18:43;;;;;;;10.23;6.30;;;;;;;;;;5080250;28;20182;-90
2021/11/07 09:21:32;;;;;;;8.17;5.70;;;;;;;;;;5081397;28;20321;-89
2021/11/07 09:24:26;;;;;;;7.73;6.00;;;;;;;;;;5080591;28;20197;-92
2021/11/07 09:27:17;;;;;;;11.33;5.83;;;;;;;;;;5079350;28;20190;-90
2021/11/07 09:30:07;;;;;;;6.40;5.80;;;;;;;;;;5080278;28;20206;-86
2021/11/07 09:32:59;;;;;;;6.83;5.90;;;;;;;;;;5079861;28;20232;-93
2021/11/07 09:36:00;;;;;;;10.63;5.40;;;;;;;;;;5078772;28;20289;-88
2021/11/07 09:38:51;;;;;;;8.03;5.40;;;;;;;;;;5076840;28;20202;-86
2021/11/07 09:41:49;;;;;;;8.67;5.70;;;;;;;;;;5076208;28;20201;-85
2021/11/07 09:44:39;;;;;;;6.33;5.30;;;;;;;;;;5078226;28;20194;-88
2021/11/07 09:47:27;;;;;;;5.70;5.10;;;;;;;;;;5077969;28;20248;-93
2021/11/07 09:50:14;;;;;;;5.47;4.87;;;;;;;;;;5076443;28;20225;-90
2021/11/07 09:53:00;;;;;;;6.67;5.33;;;;;;;;;;5077773;28;20202;-87
2021/11/07 09:55:46;;;;;;;5.87;4.60;;;;;;;;;;5076185;28;20658;-91
2021/11/07 09:58:31;;;;;;;4.27;3.87;;;;;;;;;;5077860;28;20279;-91
2021/11/07 10:01:17;;;;;;;5.03;3.97;;;;;;;;;;5077231;28;20677;-88
2021/11/07 10:04:03;;;;;;;4.30;3.90;;;;;;;;;;5078102;28;20181;-88
2021/11/07 10:06:52;;;;;;;4.93;4.50;;;;;;;;;;5077305;28;20201;-87
2021/11/07 10:09:40;;;;;;;12.90;6.90;;;;;;;;;;5077199;28;20673;-91
2021/11/07 10:12:32;;;;;;;5.70;4.60;;;;;;;;;;5075250;28;20543;-88
2021/11/07 10:15:19;;;;;;;5.27;4.00;;;;;;;;;;5075627;28;20190;-90
2021/11/07 10:18:06;;;;;;;4.23;3.90;;;;;;;;;;5074724;28;20714;-86
2021/11/07 10:20:55;;;;;;;3.97;3.50;;;;;;;;;;5075834;28;20197;-88
2021/11/07 10:23:46;;;;;;;3.93;3.53;;;;;;;;;;5075191;28;20662;-88
2021/11/07 10:26:34;;;;;;;5.10;3.70;;;;;;;;;;5075997;28;20193;-88
2021/11/07 10:29:23;;;;;;;3.97;3.63;;;;;;;;;;5075898;28;20681;-86
2021/11/07 10:32:20;;;;;;;5.07;4.10;;;;;;;;;;5075917;28;20185;-90
2021/11/07 10:35:27;;;;;;;9.60;3.93;;;;;;;;;;5062004;28;20285;-88
2021/11/07 10:38:21;;;;;;;5.43;3.27;;;;;;;;;;5056283;28;20187;-92
2021/11/07 10:41:38;;;;;;;3.80;3.50;;;;;;;;;;5054984;28;20182;-89
2021/11/07 10:53:28;;;;;;;3.90;3.60;;;;;;;;;;5056618;28;20182;-91
2021/11/07 10:56:13;;;;;;;3.87;3.40;;;;;;;;;;5055553;28;20182;-86
2021/11/07 10:59:12;;;;;;;4.63;3.50;;;;;;;;;;5056263;28;20182;-90
2021/11/07 11:01:59;;;;;;;3.77;3.47;;;;;;;;;;5055424;28;20555;-88
2021/11/07 11:04:59;;;;;;;3.73;3.40;;;;;;;;;;5065439;28;20208;-92
2021/11/07 11:07:51;;;;;;;3.50;3.20;;;;;;;;;;5075236;28;20213;-90
2021/11/07 11:10:45;;;;;;;4.87;4.37;;;;;;;;;;5074591;28;20206;-88
2021/11/07 11:13:38;;;;;;;3.20;3.00;;;;;;;;;;5076355;28;20198;-89
2021/11/07 11:16:35;;;;;;;3.60;3.30;;;;;;;;;;5077610;28;20667;-86
2021/11/07 11:19:34;;;;;;;3.70;2.67;;;;;;;;;;5076210;28;20198;-89
2021/11/07 11:22:40;;;;;;;2.97;2.83;;;;;;;;;;5073924;28;20537;-86
2021/11/07 11:25:35;;;;;;;3.67;2.57;;;;;;;;;;5074242;28;20573;-86
2021/11/07 11:28:30;;;;;;;2.60;2.50;;;;;;;;;;5076335;28;20190;-92
2021/11/07 11:31:23;;;;;;;3.17;2.67;;;;;;;;;;5073510;28;20183;-87
2021/11/07 11:34:13;;;;;;;2.67;2.47;;;;;;;;;;5078563;28;20190;-91
2021/11/07 11:37:03;;;;;;;2.43;2.10;;;;;;;;;;5080175;28;20648;-91
2021/11/07 11:39:54;;;;;;;3.00;2.43;;;;;;;;;;5079857;28;20187;-90
2021/11/07 11:42:44;;;;;;;2.30;2.10;;;;;;;;;;5079116;28;20186;-92
2021/11/07 11:45:32;;;;;;;2.00;1.90;;;;;;;;;;5079948;28;20252;-89
2021/11/07 11:51:31;;;;;;;2.30;2.10;;;;;;;;;;5074834;28;20230;-90
2021/11/07 11:57:39;;;;;;;2.10;2.00;;;;;;;;;;5070649;28;20204;-95
2021/11/07 12:00:33;;;;;;;2.00;1.90;;;;;;;;;;5078234;28;20256;-92
2021/11/07 12:03:36;;;;;;;1.77;1.77;;;;;;;;;;5079698;28;20190;-90
2021/11/07 12:06:27;;;;;;;1.60;1.60;;;;;;;;;;5077507;28;20320;-90
2021/11/07 12:09:34;;;;;;;2.10;2.00;;;;;;;;;;5076081;28;20206;-93
2021/11/07 12:12:30;;;;;;;2.07;1.80;;;;;;;;;;5077998;28;20186;-91
2021/11/07 12:15:26;;;;;;;1.80;1.70;;;;;;;;;;5078500;28;20189;-91
2021/11/07 12:18:11;;;;;;;1.73;1.63;;;;;;;;;;5078686;28;20187;-89
2021/11/07 12:20:57;;;;;;;1.97;1.87;;;;;;;;;;5079429;28;20225;-91
2021/11/07 12:23:44;;;;;;;2.30;1.70;;;;;;;;;;5080381;28;20674;-94
2021/11/07 12:26:30;;;;;;;1.57;1.57;;;;;;;;;;5078394;28;20185;-92
2021/11/07 12:29:35;;;;;;;1.70;1.70;;;;;;;;;;5078647;28;20252;-92
2021/11/07 12:32:24;;;;;;;1.80;1.70;;;;;;;;;;5078547;28;20220;-89
2021/11/07 12:35:13;;;;;;;1.43;1.43;;;;;;;;;;5079507;28;20193;-90
2021/11/07 12:41:05;;;;;;;1.40;1.40;;;;;;;;;;5078091;28;20182;-90
2021/11/07 12:43:52;;;;;;;1.40;1.30;;;;;;;;;;5078736;28;20205;-92
2021/11/07 12:46:44;;;;;;;1.27;1.27;;;;;;;;;;5077842;28;20224;-94
2021/11/07 12:53:33;;;;;;;2.10;1.60;;;;;;;;;;5084939;28;20737;-95
2021/11/07 12:56:27;;;;;;;1.40;1.40;;;;;;;;;;5081180;28;20278;-90
2021/11/07 12:59:14;;;;;;;1.70;1.60;;;;;;;;;;5079314;28;20237;-89
2021/11/07 13:02:02;;;;;;;1.80;1.70;;;;;;;;;;5081231;28;20190;-92
2021/11/07 13:04:54;;;;;;;1.90;1.70;;;;;;;;;;5075624;28;20189;-93
2021/11/07 13:07:44;;;;;;;1.50;1.40;;;;;;;;;;5074879;28;20193;-95
2021/11/07 13:10:38;;;;;;;1.40;1.30;;;;;;;;;;5074083;28;20300;-94
2021/11/07 13:13:30;;;;;;;1.60;1.50;;;;;;;;;;5078228;28;20206;-92
2021/11/07 13:16:25;;;;;;;1.57;1.47;;;;;;;;;;5077363;28;20658;-90
2021/11/07 13:19:28;;;;;;;1.40;1.30;;;;;;;;;;5071004;28;20649;-86
2021/11/07 13:22:36;;;;;;;3.27;1.90;;;;;;;;;;5069128;28;20206;-84
2021/11/07 13:25:33;;;;;;;1.97;1.80;;;;;;;;;;5069184;28;20190;-88
2021/11/07 13:28:30;;;;;;;2.23;2.03;;;;;;;;;;5069420;28;20206;-86
2021/11/07 13:31:18;;;;;;;2.40;1.63;;;;;;;;;;5068797;28;20182;-85
2021/11/07 13:34:06;;;;;;;1.53;1.53;;;;;;;;;;5068870;28;20186;-88
2021/11/07 13:36:53;;;;;;;2.20;1.67;;;;;;;;;;5068158;28;20182;-86
2021/11/07 13:39:39;;;;;;;2.00;1.80;;;;;;;;;;5068839;28;20229;-87
2021/11/07 13:42:24;;;;;;;1.83;1.73;;;;;;;;;;5068342;28;20194;-87
2021/11/07 13:45:18;;;;;;;3.17;1.73;;;;;;;;;;5068608;28;20249;-85
2021/11/07 13:48:11;;;;;;;2.33;2.13;;;;;;;;;;5070672;28;20306;-87
2021/11/07 13:50:57;;;;;;;2.13;2.00;;;;;;;;;;5056012;28;20222;-89
2021/11/07 13:53:43;;;;;;;3.93;2.40;;;;;;;;;;5030765;28;20231;-88
2021/11/07 13:56:28;;;;;;;3.07;2.37;;;;;;;;;;5029276;28;20282;-87
2021/11/07 13:59:26;;;;;;;2.03;1.90;;;;;;;;;;5028833;28;20319;-86
2021/11/07 14:02:14;;;;;;;2.00;1.90;;;;;;;;;;5028768;28;20192;-86
2021/11/07 14:04:59;;;;;;;2.20;2.10;;;;;;;;;;5014898;28;20196;-87
2021/11/07 14:07:55;;;;;;;2.20;2.10;;;;;;;;;;5015961;28;20189;-89
2021/11/07 14:10:40;;;;;;;4.17;2.10;;;;;;;;;;5015046;28;20684;-86
2021/11/07 14:13:25;;;;;;;2.40;2.20;;;;;;;;;;5014881;28;20212;-85
2021/11/07 14:16:11;;;;;;;2.10;2.00;;;;;;;;;;5013039;28;20196;-85
2021/11/07 14:18:59;;;;;;;2.17;2.07;;;;;;;;;;5014913;28;20744;-91
2021/11/07 14:21:46;;;;;;;2.30;2.20;;;;;;;;;;5010941;28;20195;-89
2021/11/07 14:24:34;;;;;;;2.27;2.17;;;;;;;;;;5011009;28;20216;-90
2021/11/07 14:27:25;;;;;;;2.33;2.23;;;;;;;;;;5015983;28;20195;-91
2021/11/07 14:30:16;;;;;;;2.47;2.37;;;;;;;;;;5014903;28;20196;-90
2021/11/07 14:33:05;;;;;;;3.43;2.07;;;;;;;;;;5010806;28;20570;-87
2021/11/07 14:35:56;;;;;;;2.17;2.07;;;;;;;;;;5012752;28;20271;-88
2021/11/07 14:38:43;;;;;;;2.97;1.80;;;;;;;;;;5013765;28;20600;-88
2021/11/07 14:41:34;;;;;;;1.87;1.77;;;;;;;;;;5013804;28;20204;-86
2021/11/07 14:44:34;;;;;;;1.93;1.87;;;;;;;;;;5013301;28;20577;-87
2021/11/07 14:47:27;;;;;;;2.20;2.10;;;;;;;;;;5010351;28;20208;-86
2021/11/07 14:50:25;;;;;;;2.37;2.20;;;;;;;;;;5012258;28;20707;-88
2021/11/07 14:53:13;;;;;;;2.53;2.10;;;;;;;;;;5029869;28;20834;-88
2021/11/07 14:56:07;;;;;;;3.60;2.20;;;;;;;;;;5034271;28;20195;-89
2021/11/07 14:59:00;;;;;;;2.60;2.40;;;;;;;;;;5032333;28;20213;-87
2021/11/07 15:01:53;;;;;;;2.40;2.30;;;;;;;;;;5033823;28;20199;-89
2021/11/07 15:04:38;;;;;;;2.50;2.30;;;;;;;;;;5031543;28;20211;-87
2021/11/07 15:07:29;;;;;;;2.57;2.33;;;;;;;;;;5033906;28;20272;-88
2021/11/07 15:10:25;;;;;;;2.83;2.63;;;;;;;;;;5032067;28;20196;-88
2021/11/07 15:13:17;;;;;;;2.50;2.30;;;;;;;;;;5031974;28;20212;-87
2021/11/07 15:16:13;;;;;;;2.63;2.43;;;;;;;;;;5032881;28;20191;-88
2021/11/07 15:19:02;;;;;;;2.70;2.30;;;;;;;;;;5027646;28;20230;-89
2021/11/07 15:21:50;;;;;;;2.60;2.40;;;;;;;;;;5033949;28;20242;-88
2021/11/07 15:24:38;;;;;;;2.50;2.40;;;;;;;;;;5030037;28;20260;-88
2021/11/07 15:27:29;;;;;;;2.47;2.27;;;;;;;;;;5034120;28;20196;-89
2021/11/07 15:30:16;;;;;;;2.57;2.33;;;;;;;;;;5033063;28;20207;-90
2021/11/07 15:33:08;;;;;;;2.27;2.17;;;;;;;;;;5032635;28;20250;-89
2021/11/07 15:35:53;;;;;;;2.73;2.60;;;;;;;;;;5032396;28;20263;-85
2021/11/07 15:38:39;;;;;;;2.90;2.70;;;;;;;;;;5032768;28;20597;-85
2021/11/07 15:41:24;;;;;;;2.53;2.43;;;;;;;;;;5032369;28;20667;-85
2021/11/07 15:44:11;;;;;;;2.90;2.63;;;;;;;;;;5032598;28;20234;-84
2021/11/07 15:46:59;;;;;;;2.67;2.47;;;;;;;;;;5032071;28;20250;-84
2021/11/07 15:49:48;;;;;;;3.07;2.87;;;;;;;;;;5032022;28;20191;-84
2021/11/07 15:52:38;;;;;;;2.90;2.43;;;;;;;;;;5036962;28;20243;-87
2021/11/07 15:55:29;;;;;;;2.83;2.63;;;;;;;;;;5020941;28;20216;-86
2021/11/07 15:58:33;;;;;;;3.30;3.00;;;;;;;;;;5012628;28;20188;-86
2021/11/07 16:01:28;;;;;;;4.47;4.00;;;;;;;;;;5013077;28;20187;-87
2021/11/07 16:04:26;;;;;;;4.47;4.07;;;;;;;;;;5015091;28;20724;-86
2021/11/07 16:07:14;;;;;;;5.13;3.20;;;;;;;;;;5012123;28;20728;-86
2021/11/07 16:10:12;;;;;;;3.00;2.80;;;;;;;;;;5031569;28;20191;-84
2021/11/07 16:13:00;;;;;;;3.17;2.97;;;;;;;;;;5031772;28;20719;-87
2021/11/07 16:15:52;;;;;;;3.20;2.90;;;;;;;;;;5037219;28;20191;-88
2021/11/07 16:18:40;;;;;;;3.00;2.80;;;;;;;;;;5029288;28;20227;-86
2021/11/07 16:21:28;;;;;;;2.73;2.53;;;;;;;;;;5022538;28;20299;-86
2021/11/07 16:24:14;;;;;;;2.30;2.20;;;;;;;;;;5012517;28;20192;-85
2021/11/07 16:27:03;;;;;;;4.00;2.13;;;;;;;;;;5012084;28;20191;-88
2021/11/07 16:29:48;;;;;;;2.50;2.40;;;;;;;;;;5030065;28;20198;-88
2021/11/07 16:32:44;;;;;;;2.80;2.60;;;;;;;;;;5030722;28;20637;-89
2021/11/07 16:35:36;;;;;;;3.17;2.87;;;;;;;;;;5012276;28;20251;-89
2021/11/07 16:38:27;;;;;;;3.63;2.30;;;;;;;;;;5035365;28;20504;-90
2021/11/07 16:41:15;;;;;;;3.20;2.90;;;;;;;;;;5031665;28;20190;-90
2021/11/07 16:44:01;;;;;;;2.97;2.77;;;;;;;;;;5033131;28;20275;-89
2021/11/07 16:46:51;;;;;;;3.60;3.30;;;;;;;;;;5032077;28;20379;-89
2021/11/07 16:49:36;;;;;;;5.03;4.13;;;;;;;;;;5032024;28;20206;-87
2021/11/07 16:52:25;;;;;;;5.30;4.50;;;;;;;;;;5031807;28;20733;-86
2021/11/07 16:55:12;;;;;;;4.03;3.63;;;;;;;;;;5023630;28;20266;-85
2021/11/07 16:57:58;;;;;;;3.30;3.00;;;;;;;;;;5032085;28;20575;-88
2021/11/07 17:00:46;;;;;;;5.33;2.73;;;;;;;;;;5031762;28;20206;-84
2021/11/07 17:03:35;;;;;;;3.40;2.70;;;;;;;;;;5031858;28;20190;-87
2021/11/07 17:06:26;;;;;;;2.13;1.93;;;;;;;;;;5031630;28;20604;-88
2021/11/07 17:09:18;;;;;;;1.67;1.57;;;;;;;;;;5031490;28;20191;-86
2021/11/07 17:12:10;;;;;;;2.97;1.90;;;;;;;;;;5031698;28;20195;-87
2021/11/07 17:14:59;;;;;;;2.20;2.00;;;;;;;;;;5011129;28;20216;-87
2021/11/07 17:17:47;;;;;;;2.00;1.90;;;;;;;;;;5011817;28;20200;-84
2021/11/07 17:20:48;;;;;;;2.00;1.90;;;;;;;;;;5010623;28;20188;-83
2021/11/07 17:23:44;;;;;;;2.20;2.10;;;;;;;;;;5011176;28;20547;-83
2021/11/07 17:26:35;;;;;;;3.23;2.53;;;;;;;;;;5019596;28;20547;-85
2021/11/07 17:29:23;;;;;;;2.60;2.10;;;;;;;;;;5011050;28;20214;-85
2021/11/07 17:32:12;;;;;;;2.30;2.20;;;;;;;;;;5011188;28;20196;-85
2021/11/07 17:35:01;;;;;;;2.40;2.30;;;;;;;;;;5010322;28;20208;-86